sensor_id;sensor_type;location;lat;lon;timestamp;P1;durP1;ratioP1;P2;durP2;ratioP2
80175;SDS011;69501;42.124;24.722;2023-07-24T00:00:29;17.45;;;12.70;;
80175;SDS011;69501;42.124;24.722;2023-07-24T00:02:55;23.17;;;14.63;;
80175;SDS011;69501;42.124;24.722;2023-07-24T00:05:21;20.85;;;12.90;;
80175;SDS011;69501;42.124;24.722;2023-07-24T00:07:47;21.05;;;13.15;;
80175;SDS011;69501;42.124;24.722;2023-07-24T00:10:12;18.48;;;10.95;;
80175;SDS011;69501;42.124;24.722;2023-07-24T00:12:38;19.02;;;12.60;;
80175;SDS011;69501;42.124;24.722;2023-07-24T00:15:04;18.55;;;12.63;;
80175;SDS011;69501;42.124;24.722;2023-07-24T00:17:30;19.75;;;13.13;;
80175;SDS011;69501;42.124;24.722;2023-07-24T00:19:55;20.88;;;12.20;;
80175;SDS011;69501;42.124;24.722;2023-07-24T00:22:21;20.88;;;13.43;;
80175;SDS011;69501;42.124;24.722;2023-07-24T00:24:47;23.48;;;13.55;;
80175;SDS011;69501;42.124;24.722;2023-07-24T00:27:12;20.17;;;13.57;;
80175;SDS011;69501;42.124;24.722;2023-07-24T00:29:39;18.85;;;12.73;;
80175;SDS011;69501;42.124;24.722;2023-07-24T00:32:05;19.92;;;12.88;;
80175;SDS011;69501;42.124;24.722;2023-07-24T00:34:30;17.83;;;12.13;;
80175;SDS011;69501;42.124;24.722;2023-07-24T00:36:56;17.13;;;12.15;;
80175;SDS011;69501;42.124;24.722;2023-07-24T00:39:22;16.75;;;11.25;;
80175;SDS011;69501;42.124;24.722;2023-07-24T00:41:47;15.85;;;11.02;;
80175;SDS011;69501;42.124;24.722;2023-07-24T00:44:13;13.05;;;10.05;;
80175;SDS011;69501;42.124;24.722;2023-07-24T00:46:39;11.95;;;9.15;;
80175;SDS011;69501;42.124;24.722;2023-07-24T00:49:05;12.23;;;9.55;;
80175;SDS011;69501;42.124;24.722;2023-07-24T00:51:32;13.52;;;9.75;;
80175;SDS011;69501;42.124;24.722;2023-07-24T00:54:00;15.48;;;9.57;;
80175;SDS011;69501;42.124;24.722;2023-07-24T00:56:26;17.50;;;9.98;;
80175;SDS011;69501;42.124;24.722;2023-07-24T00:58:52;13.68;;;9.30;;
80175;SDS011;69501;42.124;24.722;2023-07-24T01:01:23;13.70;;;8.70;;
80175;SDS011;69501;42.124;24.722;2023-07-24T01:03:49;12.13;;;8.20;;
80175;SDS011;69501;42.124;24.722;2023-07-24T01:06:16;13.90;;;9.05;;
80175;SDS011;69501;42.124;24.722;2023-07-24T01:08:41;15.23;;;9.63;;
80175;SDS011;69501;42.124;24.722;2023-07-24T01:11:19;13.80;;;9.38;;
80175;SDS011;69501;42.124;24.722;2023-07-24T01:13:56;14.00;;;8.70;;
80175;SDS011;69501;42.124;24.722;2023-07-24T01:16:51;16.30;;;9.00;;
80175;SDS011;69501;42.124;24.722;2023-07-24T01:22:42;11.20;;;8.40;;
80175;SDS011;69501;42.124;24.722;2023-07-24T01:27:31;18.17;;;8.80;;
80175;SDS011;69501;42.124;24.722;2023-07-24T01:29:57;21.15;;;8.63;;
80175;SDS011;69501;42.124;24.722;2023-07-24T01:32:23;13.43;;;7.70;;
80175;SDS011;69501;42.124;24.722;2023-07-24T01:34:50;11.95;;;8.32;;
80175;SDS011;69501;42.124;24.722;2023-07-24T01:37:16;13.88;;;8.35;;
80175;SDS011;69501;42.124;24.722;2023-07-24T01:39:45;12.70;;;8.63;;
80175;SDS011;69501;42.124;24.722;2023-07-24T01:42:12;12.30;;;8.32;;
80175;SDS011;69501;42.124;24.722;2023-07-24T01:44:39;13.25;;;8.80;;
80175;SDS011;69501;42.124;24.722;2023-07-24T01:47:04;11.55;;;7.78;;
80175;SDS011;69501;42.124;24.722;2023-07-24T01:49:30;16.95;;;8.80;;
80175;SDS011;69501;42.124;24.722;2023-07-24T01:51:56;11.57;;;8.48;;
80175;SDS011;69501;42.124;24.722;2023-07-24T01:54:22;14.25;;;7.85;;
80175;SDS011;69501;42.124;24.722;2023-07-24T01:56:48;13.48;;;8.25;;
80175;SDS011;69501;42.124;24.722;2023-07-24T01:59:14;12.02;;;8.85;;
80175;SDS011;69501;42.124;24.722;2023-07-24T02:01:39;17.13;;;8.55;;
80175;SDS011;69501;42.124;24.722;2023-07-24T02:04:06;11.93;;;8.38;;
80175;SDS011;69501;42.124;24.722;2023-07-24T02:06:31;14.18;;;9.00;;
80175;SDS011;69501;42.124;24.722;2023-07-24T02:08:57;11.57;;;9.07;;
80175;SDS011;69501;42.124;24.722;2023-07-24T02:11:22;12.82;;;8.77;;
80175;SDS011;69501;42.124;24.722;2023-07-24T02:13:48;13.55;;;9.15;;
80175;SDS011;69501;42.124;24.722;2023-07-24T02:16:14;15.32;;;9.32;;
80175;SDS011;69501;42.124;24.722;2023-07-24T02:18:43;15.30;;;10.18;;
80175;SDS011;69501;42.124;24.722;2023-07-24T02:21:09;13.15;;;10.70;;
80175;SDS011;69501;42.124;24.722;2023-07-24T02:23:35;16.38;;;10.35;;
80175;SDS011;69501;42.124;24.722;2023-07-24T02:26:01;15.77;;;11.48;;
80175;SDS011;69501;42.124;24.722;2023-07-24T02:28:27;21.17;;;11.75;;
80175;SDS011;69501;42.124;24.722;2023-07-24T02:30:52;26.63;;;13.70;;
80175;SDS011;69501;42.124;24.722;2023-07-24T02:33:22;23.58;;;13.88;;
80175;SDS011;69501;42.124;24.722;2023-07-24T02:35:49;23.02;;;14.10;;
80175;SDS011;69501;42.124;24.722;2023-07-24T02:38:16;23.40;;;13.52;;
80175;SDS011;69501;42.124;24.722;2023-07-24T02:40:41;27.52;;;15.18;;
80175;SDS011;69501;42.124;24.722;2023-07-24T02:43:08;23.88;;;14.25;;
80175;SDS011;69501;42.124;24.722;2023-07-24T02:45:34;27.20;;;14.82;;
80175;SDS011;69501;42.124;24.722;2023-07-24T02:48:00;25.92;;;15.35;;
80175;SDS011;69501;42.124;24.722;2023-07-24T02:50:27;31.45;;;16.63;;
80175;SDS011;69501;42.124;24.722;2023-07-24T02:55:34;26.23;;;16.90;;
80175;SDS011;69501;42.124;24.722;2023-07-24T02:57:59;32.67;;;20.55;;
80175;SDS011;69501;42.124;24.722;2023-07-24T03:00:25;33.72;;;20.45;;
80175;SDS011;69501;42.124;24.722;2023-07-24T03:02:52;35.88;;;20.73;;
80175;SDS011;69501;42.124;24.722;2023-07-24T03:05:17;34.03;;;20.20;;
80175;SDS011;69501;42.124;24.722;2023-07-24T03:07:43;34.85;;;20.85;;
80175;SDS011;69501;42.124;24.722;2023-07-24T03:10:09;40.63;;;21.83;;
80175;SDS011;69501;42.124;24.722;2023-07-24T03:12:34;37.47;;;21.23;;
80175;SDS011;69501;42.124;24.722;2023-07-24T03:15:00;51.70;;;25.67;;
80175;SDS011;69501;42.124;24.722;2023-07-24T03:17:26;40.70;;;21.63;;
80175;SDS011;69501;42.124;24.722;2023-07-24T03:19:53;41.63;;;23.02;;
80175;SDS011;69501;42.124;24.722;2023-07-24T03:22:19;44.47;;;23.83;;
80175;SDS011;69501;42.124;24.722;2023-07-24T03:24:45;47.25;;;22.92;;
80175;SDS011;69501;42.124;24.722;2023-07-24T03:27:11;47.15;;;23.52;;
80175;SDS011;69501;42.124;24.722;2023-07-24T03:29:37;46.53;;;22.23;;
80175;SDS011;69501;42.124;24.722;2023-07-24T03:32:02;43.03;;;23.77;;
80175;SDS011;69501;42.124;24.722;2023-07-24T03:34:28;43.45;;;22.05;;
80175;SDS011;69501;42.124;24.722;2023-07-24T03:36:54;40.25;;;23.65;;
80175;SDS011;69501;42.124;24.722;2023-07-24T03:39:19;43.17;;;22.75;;
80175;SDS011;69501;42.124;24.722;2023-07-24T03:41:45;42.92;;;23.38;;
80175;SDS011;69501;42.124;24.722;2023-07-24T03:44:11;40.45;;;22.90;;
80175;SDS011;69501;42.124;24.722;2023-07-24T03:46:36;44.55;;;23.92;;
80175;SDS011;69501;42.124;24.722;2023-07-24T03:49:02;42.88;;;24.10;;
80175;SDS011;69501;42.124;24.722;2023-07-24T03:51:28;38.55;;;23.15;;
80175;SDS011;69501;42.124;24.722;2023-07-24T03:53:53;41.75;;;22.85;;
80175;SDS011;69501;42.124;24.722;2023-07-24T03:56:19;40.55;;;22.92;;
80175;SDS011;69501;42.124;24.722;2023-07-24T03:58:45;39.75;;;22.15;;
80175;SDS011;69501;42.124;24.722;2023-07-24T04:01:10;42.90;;;22.10;;
80175;SDS011;69501;42.124;24.722;2023-07-24T04:03:36;39.70;;;22.55;;
80175;SDS011;69501;42.124;24.722;2023-07-24T04:06:02;42.70;;;21.08;;
80175;SDS011;69501;42.124;24.722;2023-07-24T04:08:28;46.30;;;22.15;;
80175;SDS011;69501;42.124;24.722;2023-07-24T04:10:54;50.50;;;23.00;;
80175;SDS011;69501;42.124;24.722;2023-07-24T04:13:21;37.78;;;22.38;;
80175;SDS011;69501;42.124;24.722;2023-07-24T04:15:47;40.58;;;23.20;;
80175;SDS011;69501;42.124;24.722;2023-07-24T04:18:13;38.97;;;22.33;;
80175;SDS011;69501;42.124;24.722;2023-07-24T04:20:39;39.92;;;21.20;;
80175;SDS011;69501;42.124;24.722;2023-07-24T04:23:10;37.28;;;22.88;;
80175;SDS011;69501;42.124;24.722;2023-07-24T04:25:36;37.88;;;22.77;;
80175;SDS011;69501;42.124;24.722;2023-07-24T04:28:02;35.30;;;22.05;;
80175;SDS011;69501;42.124;24.722;2023-07-24T04:30:28;37.33;;;20.05;;
80175;SDS011;69501;42.124;24.722;2023-07-24T04:32:54;36.63;;;19.70;;
80175;SDS011;69501;42.124;24.722;2023-07-24T04:35:22;33.58;;;17.73;;
80175;SDS011;69501;42.124;24.722;2023-07-24T04:37:48;46.85;;;18.48;;
80175;SDS011;69501;42.124;24.722;2023-07-24T04:40:13;39.65;;;19.83;;
80175;SDS011;69501;42.124;24.722;2023-07-24T04:42:39;34.72;;;17.95;;
80175;SDS011;69501;42.124;24.722;2023-07-24T04:45:05;37.50;;;19.95;;
80175;SDS011;69501;42.124;24.722;2023-07-24T04:47:34;32.00;;;18.42;;
80175;SDS011;69501;42.124;24.722;2023-07-24T04:50:01;40.90;;;19.05;;
80175;SDS011;69501;42.124;24.722;2023-07-24T04:52:27;41.42;;;21.00;;
80175;SDS011;69501;42.124;24.722;2023-07-24T04:54:53;43.30;;;20.27;;
80175;SDS011;69501;42.124;24.722;2023-07-24T04:57:18;37.40;;;19.05;;
80175;SDS011;69501;42.124;24.722;2023-07-24T04:59:44;46.42;;;21.25;;
80175;SDS011;69501;42.124;24.722;2023-07-24T05:02:10;41.20;;;20.95;;
80175;SDS011;69501;42.124;24.722;2023-07-24T05:04:35;38.75;;;21.17;;
80175;SDS011;69501;42.124;24.722;2023-07-24T05:07:01;45.00;;;22.48;;
80175;SDS011;69501;42.124;24.722;2023-07-24T05:09:27;44.88;;;22.13;;
80175;SDS011;69501;42.124;24.722;2023-07-24T05:11:52;57.05;;;23.13;;
80175;SDS011;69501;42.124;24.722;2023-07-24T05:14:18;42.25;;;22.33;;
80175;SDS011;69501;42.124;24.722;2023-07-24T05:16:44;37.17;;;20.45;;
80175;SDS011;69501;42.124;24.722;2023-07-24T05:19:09;41.60;;;22.33;;
80175;SDS011;69501;42.124;24.722;2023-07-24T05:21:35;56.17;;;23.35;;
80175;SDS011;69501;42.124;24.722;2023-07-24T05:24:01;49.05;;;23.52;;
80175;SDS011;69501;42.124;24.722;2023-07-24T05:26:26;44.22;;;23.80;;
80175;SDS011;69501;42.124;24.722;2023-07-24T05:28:52;48.80;;;25.35;;
80175;SDS011;69501;42.124;24.722;2023-07-24T05:31:18;47.92;;;25.50;;
80175;SDS011;69501;42.124;24.722;2023-07-24T05:33:44;47.88;;;24.35;;
80175;SDS011;69501;42.124;24.722;2023-07-24T05:36:10;40.97;;;23.60;;
80175;SDS011;69501;42.124;24.722;2023-07-24T05:38:35;48.30;;;25.15;;
80175;SDS011;69501;42.124;24.722;2023-07-24T05:41:02;48.35;;;27.92;;
80175;SDS011;69501;42.124;24.722;2023-07-24T05:43:28;51.85;;;26.95;;
80175;SDS011;69501;42.124;24.722;2023-07-24T05:45:55;44.65;;;25.67;;
80175;SDS011;69501;42.124;24.722;2023-07-24T05:48:22;53.10;;;25.88;;
80175;SDS011;69501;42.124;24.722;2023-07-24T05:50:49;46.22;;;25.83;;
80175;SDS011;69501;42.124;24.722;2023-07-24T05:53:15;46.92;;;26.92;;
80175;SDS011;69501;42.124;24.722;2023-07-24T05:55:41;44.67;;;26.63;;
80175;SDS011;69501;42.124;24.722;2023-07-24T05:58:07;52.45;;;28.20;;
80175;SDS011;69501;42.124;24.722;2023-07-24T06:00:34;49.45;;;26.00;;
80175;SDS011;69501;42.124;24.722;2023-07-24T06:03:00;43.72;;;25.35;;
80175;SDS011;69501;42.124;24.722;2023-07-24T06:05:26;48.75;;;25.52;;
80175;SDS011;69501;42.124;24.722;2023-07-24T06:07:51;45.05;;;25.90;;
80175;SDS011;69501;42.124;24.722;2023-07-24T06:10:17;49.38;;;26.55;;
80175;SDS011;69501;42.124;24.722;2023-07-24T06:12:43;40.78;;;25.40;;
80175;SDS011;69501;42.124;24.722;2023-07-24T06:15:08;48.75;;;26.77;;
80175;SDS011;69501;42.124;24.722;2023-07-24T06:17:34;45.78;;;25.42;;
80175;SDS011;69501;42.124;24.722;2023-07-24T06:20:00;52.20;;;25.35;;
80175;SDS011;69501;42.124;24.722;2023-07-24T06:22:26;33.13;;;23.58;;
80175;SDS011;69501;42.124;24.722;2023-07-24T06:24:51;47.90;;;27.70;;
80175;SDS011;69501;42.124;24.722;2023-07-24T06:27:17;48.65;;;26.25;;
80175;SDS011;69501;42.124;24.722;2023-07-24T06:29:42;42.10;;;25.65;;
80175;SDS011;69501;42.124;24.722;2023-07-24T06:32:08;45.72;;;25.63;;
80175;SDS011;69501;42.124;24.722;2023-07-24T06:34:34;42.90;;;25.70;;
80175;SDS011;69501;42.124;24.722;2023-07-24T06:37:00;45.42;;;25.38;;
80175;SDS011;69501;42.124;24.722;2023-07-24T06:39:25;38.45;;;23.15;;
80175;SDS011;69501;42.124;24.722;2023-07-24T06:41:53;35.80;;;24.75;;
80175;SDS011;69501;42.124;24.722;2023-07-24T06:44:19;44.88;;;25.38;;
80175;SDS011;69501;42.124;24.722;2023-07-24T06:46:45;38.55;;;22.83;;
80175;SDS011;69501;42.124;24.722;2023-07-24T06:49:10;47.25;;;25.35;;
80175;SDS011;69501;42.124;24.722;2023-07-24T06:51:36;39.38;;;24.77;;
80175;SDS011;69501;42.124;24.722;2023-07-24T06:54:03;39.30;;;24.05;;
80175;SDS011;69501;42.124;24.722;2023-07-24T06:56:32;41.28;;;25.05;;
80175;SDS011;69501;42.124;24.722;2023-07-24T06:58:58;43.40;;;24.42;;
80175;SDS011;69501;42.124;24.722;2023-07-24T07:01:23;39.00;;;25.10;;
80175;SDS011;69501;42.124;24.722;2023-07-24T07:03:55;37.17;;;24.17;;
80175;SDS011;69501;42.124;24.722;2023-07-24T07:06:29;43.38;;;24.15;;
80175;SDS011;69501;42.124;24.722;2023-07-24T07:08:55;45.35;;;22.88;;
80175;SDS011;69501;42.124;24.722;2023-07-24T07:11:20;44.53;;;27.25;;
80175;SDS011;69501;42.124;24.722;2023-07-24T07:13:46;44.80;;;25.33;;
80175;SDS011;69501;42.124;24.722;2023-07-24T07:16:12;41.47;;;24.80;;
80175;SDS011;69501;42.124;24.722;2023-07-24T07:18:37;45.17;;;23.65;;
80175;SDS011;69501;42.124;24.722;2023-07-24T07:21:03;39.40;;;24.67;;
80175;SDS011;69501;42.124;24.722;2023-07-24T07:23:29;46.58;;;23.88;;
80175;SDS011;69501;42.124;24.722;2023-07-24T07:25:55;39.22;;;23.10;;
80175;SDS011;69501;42.124;24.722;2023-07-24T07:28:20;41.05;;;23.42;;
80175;SDS011;69501;42.124;24.722;2023-07-24T07:30:46;42.10;;;23.92;;
80175;SDS011;69501;42.124;24.722;2023-07-24T07:33:12;33.08;;;21.67;;
80175;SDS011;69501;42.124;24.722;2023-07-24T07:35:37;33.13;;;21.55;;
80175;SDS011;69501;42.124;24.722;2023-07-24T07:38:03;35.40;;;23.70;;
80175;SDS011;69501;42.124;24.722;2023-07-24T07:40:29;34.78;;;23.33;;
80175;SDS011;69501;42.124;24.722;2023-07-24T07:42:55;39.15;;;24.40;;
80175;SDS011;69501;42.124;24.722;2023-07-24T07:45:22;37.45;;;23.95;;
80175;SDS011;69501;42.124;24.722;2023-07-24T07:47:48;39.25;;;23.33;;
80175;SDS011;69501;42.124;24.722;2023-07-24T07:50:14;35.88;;;22.85;;
80175;SDS011;69501;42.124;24.722;2023-07-24T07:52:40;34.35;;;22.80;;
80175;SDS011;69501;42.124;24.722;2023-07-24T07:55:06;32.40;;;22.17;;
80175;SDS011;69501;42.124;24.722;2023-07-24T07:57:35;39.17;;;23.13;;
80175;SDS011;69501;42.124;24.722;2023-07-24T08:00:02;37.47;;;22.98;;
80175;SDS011;69501;42.124;24.722;2023-07-24T08:02:28;39.72;;;22.50;;
80175;SDS011;69501;42.124;24.722;2023-07-24T08:04:54;30.65;;;20.55;;
80175;SDS011;69501;42.124;24.722;2023-07-24T08:07:19;40.63;;;21.77;;
80175;SDS011;69501;42.124;24.722;2023-07-24T08:09:45;33.67;;;21.05;;
80175;SDS011;69501;42.124;24.722;2023-07-24T08:12:11;34.33;;;22.42;;
80175;SDS011;69501;42.124;24.722;2023-07-24T08:14:37;35.40;;;23.38;;
80175;SDS011;69501;42.124;24.722;2023-07-24T08:17:03;45.63;;;23.25;;
80175;SDS011;69501;42.124;24.722;2023-07-24T08:19:28;35.38;;;20.58;;
80175;SDS011;69501;42.124;24.722;2023-07-24T08:21:54;31.95;;;21.40;;
80175;SDS011;69501;42.124;24.722;2023-07-24T08:24:20;31.50;;;21.70;;
80175;SDS011;69501;42.124;24.722;2023-07-24T08:26:46;33.95;;;20.55;;
80175;SDS011;69501;42.124;24.722;2023-07-24T08:29:12;33.20;;;21.35;;
80175;SDS011;69501;42.124;24.722;2023-07-24T08:31:37;32.83;;;21.30;;
80175;SDS011;69501;42.124;24.722;2023-07-24T08:34:03;33.90;;;20.10;;
80175;SDS011;69501;42.124;24.722;2023-07-24T08:36:29;34.05;;;21.17;;
80175;SDS011;69501;42.124;24.722;2023-07-24T08:38:54;39.13;;;21.92;;
80175;SDS011;69501;42.124;24.722;2023-07-24T08:41:20;31.65;;;20.10;;
80175;SDS011;69501;42.124;24.722;2023-07-24T08:43:46;33.88;;;21.13;;
80175;SDS011;69501;42.124;24.722;2023-07-24T08:46:12;32.17;;;20.10;;
80175;SDS011;69501;42.124;24.722;2023-07-24T08:48:40;30.30;;;19.42;;
80175;SDS011;69501;42.124;24.722;2023-07-24T08:51:08;27.75;;;17.90;;
80175;SDS011;69501;42.124;24.722;2023-07-24T08:53:35;25.80;;;18.05;;
80175;SDS011;69501;42.124;24.722;2023-07-24T08:56:02;27.45;;;18.17;;
80175;SDS011;69501;42.124;24.722;2023-07-24T08:58:29;31.45;;;18.65;;
80175;SDS011;69501;42.124;24.722;2023-07-24T09:00:58;30.80;;;19.77;;
80175;SDS011;69501;42.124;24.722;2023-07-24T09:03:24;30.40;;;20.08;;
80175;SDS011;69501;42.124;24.722;2023-07-24T09:05:50;30.25;;;20.23;;
80175;SDS011;69501;42.124;24.722;2023-07-24T09:08:16;32.08;;;20.25;;
80175;SDS011;69501;42.124;24.722;2023-07-24T09:10:42;32.17;;;19.98;;
80175;SDS011;69501;42.124;24.722;2023-07-24T09:13:08;25.92;;;19.42;;
80175;SDS011;69501;42.124;24.722;2023-07-24T09:15:42;33.00;;;20.08;;
80175;SDS011;69501;42.124;24.722;2023-07-24T09:18:09;25.75;;;18.98;;
80175;SDS011;69501;42.124;24.722;2023-07-24T09:20:41;29.67;;;20.42;;
80175;SDS011;69501;42.124;24.722;2023-07-24T09:23:08;29.50;;;20.67;;
80175;SDS011;69501;42.124;24.722;2023-07-24T09:25:35;28.50;;;20.80;;
80175;SDS011;69501;42.124;24.722;2023-07-24T09:28:09;31.00;;;19.23;;
80175;SDS011;69501;42.124;24.722;2023-07-24T09:30:38;25.20;;;19.25;;
80175;SDS011;69501;42.124;24.722;2023-07-24T09:33:05;26.02;;;18.92;;
80175;SDS011;69501;42.124;24.722;2023-07-24T09:35:31;28.73;;;18.50;;
80175;SDS011;69501;42.124;24.722;2023-07-24T09:38:09;25.90;;;18.08;;
80175;SDS011;69501;42.124;24.722;2023-07-24T09:40:43;30.33;;;18.00;;
80175;SDS011;69501;42.124;24.722;2023-07-24T09:43:23;29.98;;;19.02;;
80175;SDS011;69501;42.124;24.722;2023-07-24T09:45:53;25.98;;;18.35;;
80175;SDS011;69501;42.124;24.722;2023-07-24T09:48:20;27.13;;;18.88;;
80175;SDS011;69501;42.124;24.722;2023-07-24T09:50:48;26.67;;;16.92;;
80175;SDS011;69501;42.124;24.722;2023-07-24T09:53:20;30.77;;;17.23;;
80175;SDS011;69501;42.124;24.722;2023-07-24T09:55:49;20.67;;;15.25;;
80175;SDS011;69501;42.124;24.722;2023-07-24T09:58:20;25.02;;;16.15;;
80175;SDS011;69501;42.124;24.722;2023-07-24T10:00:47;30.30;;;18.13;;
80175;SDS011;69501;42.124;24.722;2023-07-24T10:03:14;28.88;;;18.45;;
80175;SDS011;69501;42.124;24.722;2023-07-24T10:05:40;26.38;;;17.30;;
80175;SDS011;69501;42.124;24.722;2023-07-24T10:08:09;24.25;;;17.45;;
80175;SDS011;69501;42.124;24.722;2023-07-24T10:10:41;25.10;;;17.45;;
80175;SDS011;69501;42.124;24.722;2023-07-24T10:13:07;27.88;;;17.67;;
80175;SDS011;69501;42.124;24.722;2023-07-24T10:15:36;25.88;;;18.55;;
80175;SDS011;69501;42.124;24.722;2023-07-24T10:18:04;29.80;;;19.67;;
80175;SDS011;69501;42.124;24.722;2023-07-24T10:20:35;27.45;;;17.48;;
80175;SDS011;69501;42.124;24.722;2023-07-24T10:23:08;27.60;;;18.20;;
80175;SDS011;69501;42.124;24.722;2023-07-24T10:25:37;32.60;;;18.30;;
80175;SDS011;69501;42.124;24.722;2023-07-24T10:28:08;28.88;;;17.38;;
80175;SDS011;69501;42.124;24.722;2023-07-24T10:30:37;33.22;;;17.90;;
80175;SDS011;69501;42.124;24.722;2023-07-24T10:33:06;22.23;;;17.08;;
80175;SDS011;69501;42.124;24.722;2023-07-24T10:38:05;25.20;;;16.27;;
80175;SDS011;69501;42.124;24.722;2023-07-24T10:40:32;24.25;;;16.90;;
80175;SDS011;69501;42.124;24.722;2023-07-24T10:42:59;27.08;;;16.30;;
80175;SDS011;69501;42.124;24.722;2023-07-24T10:45:25;25.60;;;16.23;;
80175;SDS011;69501;42.124;24.722;2023-07-24T10:47:51;22.90;;;15.48;;
80175;SDS011;69501;42.124;24.722;2023-07-24T10:50:18;19.23;;;14.05;;
80175;SDS011;69501;42.124;24.722;2023-07-24T10:52:44;25.77;;;15.27;;
80175;SDS011;69501;42.124;24.722;2023-07-24T10:55:10;21.02;;;14.52;;
80175;SDS011;69501;42.124;24.722;2023-07-24T10:57:35;20.67;;;14.57;;
80175;SDS011;69501;42.124;24.722;2023-07-24T11:00:01;19.83;;;13.85;;
80175;SDS011;69501;42.124;24.722;2023-07-24T11:02:27;17.88;;;13.45;;
80175;SDS011;69501;42.124;24.722;2023-07-24T11:04:53;23.20;;;15.23;;
80175;SDS011;69501;42.124;24.722;2023-07-24T11:07:19;19.52;;;14.45;;
80175;SDS011;69501;42.124;24.722;2023-07-24T11:09:46;20.10;;;15.85;;
80175;SDS011;69501;42.124;24.722;2023-07-24T11:12:15;24.70;;;17.77;;
80175;SDS011;69501;42.124;24.722;2023-07-24T11:14:48;22.85;;;17.23;;
80175;SDS011;69501;42.124;24.722;2023-07-24T11:17:14;24.77;;;17.88;;
80175;SDS011;69501;42.124;24.722;2023-07-24T11:19:40;23.90;;;17.20;;
80175;SDS011;69501;42.124;24.722;2023-07-24T11:22:06;20.85;;;16.42;;
80175;SDS011;69501;42.124;24.722;2023-07-24T11:24:32;24.30;;;15.10;;
80175;SDS011;69501;42.124;24.722;2023-07-24T11:26:58;23.58;;;17.55;;
80175;SDS011;69501;42.124;24.722;2023-07-24T11:29:24;27.65;;;18.45;;
80175;SDS011;69501;42.124;24.722;2023-07-24T11:31:55;30.90;;;17.88;;
80175;SDS011;69501;42.124;24.722;2023-07-24T11:34:24;21.83;;;16.60;;
80175;SDS011;69501;42.124;24.722;2023-07-24T11:36:49;20.98;;;16.75;;
80175;SDS011;69501;42.124;24.722;2023-07-24T11:39:25;22.92;;;16.85;;
80175;SDS011;69501;42.124;24.722;2023-07-24T11:41:50;25.92;;;17.50;;
80175;SDS011;69501;42.124;24.722;2023-07-24T11:44:23;26.52;;;16.77;;
80175;SDS011;69501;42.124;24.722;2023-07-24T11:46:50;23.50;;;17.05;;
80175;SDS011;69501;42.124;24.722;2023-07-24T11:49:18;23.48;;;17.20;;
80175;SDS011;69501;42.124;24.722;2023-07-24T11:51:44;22.27;;;16.80;;
80175;SDS011;69501;42.124;24.722;2023-07-24T11:54:14;23.38;;;17.70;;
80175;SDS011;69501;42.124;24.722;2023-07-24T11:56:45;21.55;;;17.08;;
80175;SDS011;69501;42.124;24.722;2023-07-24T11:59:14;24.38;;;17.48;;
80175;SDS011;69501;42.124;24.722;2023-07-24T12:01:40;24.15;;;18.40;;
80175;SDS011;69501;42.124;24.722;2023-07-24T12:04:10;25.17;;;19.05;;
80175;SDS011;69501;42.124;24.722;2023-07-24T12:06:37;24.33;;;18.42;;
80175;SDS011;69501;42.124;24.722;2023-07-24T12:09:03;25.38;;;18.92;;
80175;SDS011;69501;42.124;24.722;2023-07-24T12:11:30;26.48;;;18.52;;
80175;SDS011;69501;42.124;24.722;2023-07-24T12:13:56;29.80;;;18.98;;
80175;SDS011;69501;42.124;24.722;2023-07-24T12:16:22;21.75;;;16.77;;
80175;SDS011;69501;42.124;24.722;2023-07-24T12:18:48;24.77;;;18.60;;
80175;SDS011;69501;42.124;24.722;2023-07-24T12:21:14;22.98;;;18.10;;
80175;SDS011;69501;42.124;24.722;2023-07-24T12:23:39;22.42;;;18.17;;
80175;SDS011;69501;42.124;24.722;2023-07-24T12:26:05;23.27;;;18.02;;
80175;SDS011;69501;42.124;24.722;2023-07-24T12:28:31;25.40;;;17.95;;
80175;SDS011;69501;42.124;24.722;2023-07-24T12:30:56;20.88;;;17.67;;
80175;SDS011;69501;42.124;24.722;2023-07-24T12:33:22;22.02;;;18.17;;
80175;SDS011;69501;42.124;24.722;2023-07-24T12:35:51;26.08;;;17.83;;
80175;SDS011;69501;42.124;24.722;2023-07-24T12:38:20;23.13;;;18.08;;
80175;SDS011;69501;42.124;24.722;2023-07-24T12:40:45;25.02;;;17.75;;
80175;SDS011;69501;42.124;24.722;2023-07-24T12:43:11;23.05;;;17.75;;
80175;SDS011;69501;42.124;24.722;2023-07-24T12:45:37;23.67;;;16.10;;
80175;SDS011;69501;42.124;24.722;2023-07-24T12:48:02;22.10;;;16.40;;
80175;SDS011;69501;42.124;24.722;2023-07-24T12:50:28;19.42;;;16.13;;
80175;SDS011;69501;42.124;24.722;2023-07-24T12:52:55;22.38;;;17.42;;
80175;SDS011;69501;42.124;24.722;2023-07-24T12:55:21;23.15;;;16.35;;
80175;SDS011;69501;42.124;24.722;2023-07-24T12:57:46;23.45;;;17.27;;
80175;SDS011;69501;42.124;24.722;2023-07-24T13:00:12;18.92;;;16.80;;
80175;SDS011;69501;42.124;24.722;2023-07-24T13:02:38;21.20;;;15.90;;
80175;SDS011;69501;42.124;24.722;2023-07-24T13:05:04;21.88;;;16.95;;
80175;SDS011;69501;42.124;24.722;2023-07-24T13:07:29;24.50;;;17.35;;
80175;SDS011;69501;42.124;24.722;2023-07-24T13:09:55;18.92;;;16.08;;
80175;SDS011;69501;42.124;24.722;2023-07-24T13:12:21;20.73;;;15.82;;
80175;SDS011;69501;42.124;24.722;2023-07-24T13:14:46;20.25;;;16.50;;
80175;SDS011;69501;42.124;24.722;2023-07-24T13:17:12;24.27;;;15.85;;
80175;SDS011;69501;42.124;24.722;2023-07-24T13:19:41;17.67;;;14.57;;
80175;SDS011;69501;42.124;24.722;2023-07-24T13:22:06;19.23;;;14.27;;
80175;SDS011;69501;42.124;24.722;2023-07-24T13:24:32;17.85;;;14.68;;
80175;SDS011;69501;42.124;24.722;2023-07-24T13:26:58;16.85;;;14.82;;
80175;SDS011;69501;42.124;24.722;2023-07-24T13:29:23;20.15;;;14.27;;
80175;SDS011;69501;42.124;24.722;2023-07-24T13:31:49;18.48;;;14.73;;
80175;SDS011;69501;42.124;24.722;2023-07-24T13:34:17;15.90;;;14.23;;
80175;SDS011;69501;42.124;24.722;2023-07-24T13:36:44;18.60;;;14.07;;
80175;SDS011;69501;42.124;24.722;2023-07-24T13:39:11;19.23;;;14.18;;
80175;SDS011;69501;42.124;24.722;2023-07-24T13:41:37;18.63;;;13.80;;
80175;SDS011;69501;42.124;24.722;2023-07-24T13:44:04;20.23;;;14.18;;
80175;SDS011;69501;42.124;24.722;2023-07-24T13:46:29;21.67;;;14.57;;
80175;SDS011;69501;42.124;24.722;2023-07-24T13:48:55;17.75;;;13.45;;
80175;SDS011;69501;42.124;24.722;2023-07-24T13:51:21;15.45;;;13.75;;
80175;SDS011;69501;42.124;24.722;2023-07-24T13:53:46;18.30;;;13.65;;
80175;SDS011;69501;42.124;24.722;2023-07-24T13:56:14;18.00;;;14.20;;
80175;SDS011;69501;42.124;24.722;2023-07-24T13:58:40;16.73;;;13.95;;
80175;SDS011;69501;42.124;24.722;2023-07-24T14:01:05;17.45;;;13.15;;
80175;SDS011;69501;42.124;24.722;2023-07-24T14:03:35;17.05;;;13.75;;
80175;SDS011;69501;42.124;24.722;2023-07-24T14:06:00;14.55;;;12.68;;
80175;SDS011;69501;42.124;24.722;2023-07-24T14:08:26;20.15;;;13.63;;
80175;SDS011;69501;42.124;24.722;2023-07-24T14:10:52;17.42;;;13.48;;
80175;SDS011;69501;42.124;24.722;2023-07-24T14:13:18;15.73;;;13.38;;
80175;SDS011;69501;42.124;24.722;2023-07-24T14:15:43;18.23;;;14.50;;
80175;SDS011;69501;42.124;24.722;2023-07-24T14:18:09;18.85;;;13.90;;